createdAt,value
2022-11-28T00:01:09.360Z,101617.22
2022-11-28T00:05:12.175Z,101612.84
2022-11-28T00:09:15.185Z,101616.28
2022-11-28T00:13:16.892Z,101612.03
2022-11-28T00:17:18.817Z,101610.25
2022-11-28T00:21:21.093Z,101612.84
2022-11-28T00:25:22.895Z,101617.16
2022-11-28T00:29:24.856Z,101613.66
2022-11-28T00:33:26.851Z,101606.75
2022-11-28T00:37:28.493Z,101604.22
2022-11-28T00:41:31.234Z,101604.25
2022-11-28T00:45:32.993Z,101601.69
2022-11-28T00:49:35.040Z,101594.75
2022-11-28T00:53:37.461Z,101591.31
2022-11-28T00:57:39.340Z,101592.19
2022-11-28T01:01:43.916Z,101596.47
2022-11-28T01:05:45.957Z,101592.09
2022-11-28T01:09:47.707Z,101590.41
2022-11-28T01:13:50.339Z,101582.63
2022-11-28T01:17:51.998Z,101588.69
2022-11-28T01:21:53.952Z,101583.59
2022-11-28T01:25:55.854Z,101584.41
2022-11-28T01:29:57.731Z,101580.94
2022-11-28T01:33:59.633Z,101575.78
2022-11-28T01:38:01.693Z,101575.75
2022-11-28T01:42:03.831Z,101578.38
2022-11-28T01:46:05.919Z,101562.84
2022-11-28T01:50:08.394Z,101567.16
2022-11-28T01:54:11.467Z,101558.50
2022-11-28T01:58:13.853Z,101555.06
2022-11-28T02:02:40.068Z,101554.16
2022-11-28T02:06:42.659Z,101545.56
2022-11-28T02:11:18.137Z,101542.94
2022-11-28T02:15:42.706Z,101542.09
2022-11-28T02:20:24.314Z,101534.31
2022-11-28T02:24:54.874Z,101524.69
2022-11-28T02:29:31.707Z,101530.81
2022-11-28T02:33:38.338Z,101535.16
2022-11-28T02:38:04.617Z,101533.41
2022-11-28T02:42:23.004Z,101525.59
2022-11-28T02:46:57.742Z,101520.44
2022-11-28T02:51:11.619Z,101520.44
2022-11-28T02:55:14.603Z,101517.84
2022-11-28T02:59:38.228Z,101512.72
2022-11-28T03:03:52.908Z,101509.25
2022-11-28T03:08:23.391Z,101509.19
2022-11-28T03:12:32.538Z,101504.94
2022-11-28T03:16:48.899Z,101512.75
2022-11-28T03:21:23.512Z,101507.56
2022-11-28T03:25:38.235Z,101511.84
2022-11-28T03:29:46.428Z,101506.69
2022-11-28T03:33:54.555Z,101511.84
2022-11-28T03:38:02.844Z,101500.63
2022-11-28T03:42:09.052Z,101498.91
2022-11-28T03:46:15.667Z,101505.75
2022-11-28T03:50:23.354Z,101504.91
2022-11-28T03:54:34.053Z,101502.34
2022-11-28T03:58:53.613Z,101502.34
2022-11-28T04:03:15.538Z,101502.31
2022-11-28T04:07:43.408Z,101496.31
2022-11-28T04:11:51.767Z,101500.69
2022-11-28T04:16:12.949Z,101498.94
2022-11-28T04:20:24.589Z,101486.91
2022-11-28T04:24:36.458Z,101496.44
2022-11-28T04:28:40.061Z,101496.44
2022-11-28T04:32:49.431Z,101490.47
2022-11-28T04:36:54.013Z,101490.44
2022-11-28T04:41:03.165Z,101488.66
2022-11-28T04:45:13.813Z,101483.47
2022-11-28T04:49:15.976Z,101486.00
2022-11-28T04:53:30.521Z,101476.53
2022-11-28T04:57:37.391Z,101470.53
2022-11-28T05:01:41.917Z,101477.44
2022-11-28T05:05:47.292Z,101483.53
2022-11-28T05:09:48.922Z,101484.31
2022-11-28T05:13:51.129Z,101486.09
2022-11-28T05:17:52.922Z,101485.34
2022-11-28T05:21:54.801Z,101489.63
2022-11-28T05:25:56.448Z,101494.81
2022-11-28T05:29:58.398Z,101491.41
2022-11-28T05:33:59.999Z,101500.84
2022-11-28T05:38:02.038Z,101495.72
2022-11-28T05:42:03.985Z,101498.28
2022-11-28T05:46:06.837Z,101494.00
2022-11-28T05:50:08.806Z,101494.81
2022-11-28T05:54:10.858Z,101488.75
2022-11-28T05:58:12.966Z,101488.78
2022-11-28T06:02:14.987Z,101488.00
2022-11-28T06:06:21.913Z,101488.72
2022-11-28T06:10:23.732Z,101487.03
2022-11-28T06:14:25.591Z,101484.38
2022-11-28T06:18:27.721Z,101478.38
2022-11-28T06:22:29.361Z,101465.38
2022-11-28T06:26:31.479Z,101480.06
2022-11-28T06:30:33.288Z,101473.97
2022-11-28T06:34:35.240Z,101491.25
2022-11-28T06:38:37.476Z,101491.22
2022-11-28T06:42:39.219Z,101489.53
2022-11-28T06:46:42.112Z,101498.19
2022-11-28T06:50:43.918Z,101492.22
2022-11-28T06:54:45.866Z,101497.28
2022-11-28T06:58:53.271Z,101502.47
2022-11-28T07:02:55.152Z,101496.56
2022-11-28T07:06:57.036Z,101500.84
2022-11-28T07:11:06.477Z,101500.81
2022-11-28T07:15:08.393Z,101500.78
2022-11-28T07:19:11.265Z,101497.28
2022-11-28T07:23:13.001Z,101498.09
2022-11-28T07:27:14.882Z,101492.91
2022-11-28T07:31:21.965Z,101491.91
2022-11-28T07:35:24.422Z,101488.44
2022-11-28T07:39:26.577Z,101483.22
2022-11-28T07:43:28.607Z,101482.28
2022-11-28T07:47:30.677Z,101486.53
2022-11-28T07:51:34.015Z,101476.88
2022-11-28T07:55:36.385Z,101476.88
2022-11-28T07:59:38.278Z,101469.94
2022-11-28T08:03:40.641Z,101470.78
2022-11-28T08:07:42.701Z,101467.38
2022-11-28T08:11:44.476Z,101463.84
2022-11-28T08:15:46.398Z,101461.31
2022-11-28T08:19:48.206Z,101457.84
2022-11-28T08:23:51.858Z,101463.88
2022-11-28T08:27:53.571Z,101469.91
2022-11-28T08:31:56.649Z,101455.91
2022-11-28T08:35:58.171Z,101460.22
2022-11-28T08:40:00.023Z,101465.50
2022-11-28T08:44:02.082Z,101456.75
2022-11-28T08:48:04.571Z,101462.81
2022-11-28T08:52:06.904Z,101456.72
2022-11-28T08:56:09.619Z,101454.97
2022-11-28T09:00:11.929Z,101459.25
2022-11-28T09:04:13.924Z,101456.50
2022-11-28T09:08:17.601Z,101456.50
2022-11-28T09:12:19.438Z,101450.25
2022-11-28T09:16:21.442Z,101449.16
2022-11-28T09:20:23.285Z,101444.06
2022-11-28T09:24:25.279Z,101434.44
2022-11-28T09:28:28.803Z,101437.06
2022-11-28T09:32:30.669Z,101433.66
2022-11-28T09:36:32.726Z,101431.00
2022-11-28T09:40:44.635Z,101420.28
2022-11-28T09:44:54.744Z,101422.81
2022-11-28T09:49:00.353Z,101417.78
2022-11-28T09:53:17.781Z,101411.81
2022-11-28T09:57:34.199Z,101403.47
2022-11-28T10:02:01.425Z,101402.56
2022-11-28T10:06:23.129Z,101403.38
2022-11-28T10:11:10.802Z,101404.47
2022-11-28T10:15:20.258Z,101394.28
2022-11-28T10:24:01.308Z,101395.69
2022-11-28T10:28:10.259Z,101387.88
2022-11-28T10:32:17.713Z,101383.63
2022-11-28T10:36:26.464Z,101389.63
2022-11-28T10:40:46.997Z,101383.75
2022-11-28T10:45:30.182Z,101375.88
2022-11-28T10:49:49.139Z,101376.94
2022-11-28T10:54:28.081Z,101375.09
2022-11-28T10:58:56.317Z,101361.91
2022-11-28T11:03:02.307Z,101375.88
2022-11-28T11:07:29.875Z,101365.41
2022-11-28T11:11:41.829Z,101366.28
2022-11-28T11:15:45.932Z,101368.19
2022-11-28T11:19:47.687Z,101371.72
2022-11-28T11:24:10.139Z,101371.56
2022-11-28T11:28:27.218Z,101365.56
2022-11-28T11:32:30.727Z,101370.72
2022-11-28T11:36:35.964Z,101370.63
2022-11-28T11:40:38.204Z,101370.88
2022-11-28T11:44:39.929Z,101368.03
2022-11-28T11:48:43.284Z,101373.41
2022-11-28T11:53:00.798Z,101365.44
2022-11-28T11:57:25.374Z,101369.84
2022-11-28T12:01:26.494Z,101367.28
2022-11-28T12:05:52.303Z,101372.50
2022-11-28T12:10:01.738Z,101377.75
2022-11-28T12:14:28.060Z,101381.19
2022-11-28T12:18:43.540Z,101379.47
2022-11-28T12:23:27.280Z,101373.34
2022-11-28T12:28:06.909Z,101370.66
2022-11-28T12:32:31.517Z,101365.47
2022-11-28T12:36:40.665Z,101365.44
2022-11-28T12:41:14.054Z,101369.03
2022-11-28T12:45:20.328Z,101365.56
2022-11-28T12:49:44.937Z,101364.56
2022-11-28T12:54:18.786Z,101369.06
2022-11-28T12:58:34.233Z,101365.53
2022-11-28T13:03:05.233Z,101362.13
2022-11-28T13:07:32.328Z,101364.16
2022-11-28T13:12:07.554Z,101357.13
2022-11-28T13:16:35.145Z,101364.88
2022-11-28T13:20:49.520Z,101367.56
2022-11-28T13:25:20.726Z,101361.47
2022-11-28T13:29:36.001Z,101363.25
2022-11-28T13:33:53.569Z,101358.97
2022-11-28T13:38:36.569Z,101357.50
2022-11-28T13:43:04.441Z,101364.59
2022-11-28T13:47:36.735Z,101360.09
2022-11-28T13:51:38.881Z,101362.66
2022-11-28T13:55:46.732Z,101354.84
2022-11-28T13:59:57.166Z,101355.63
2022-11-28T14:03:58.947Z,101351.34
2022-11-28T14:08:03.020Z,101346.22
2022-11-28T14:12:21.053Z,101345.38
2022-11-28T14:16:52.061Z,101342.91
2022-11-28T14:20:57.439Z,101344.53
2022-11-28T14:25:11.265Z,101336.00
2022-11-28T14:29:26.744Z,101336.91
2022-11-28T14:33:42.425Z,101334.38
2022-11-28T14:37:53.015Z,101342.28
2022-11-28T14:42:04.632Z,101333.75
2022-11-28T14:46:15.389Z,101334.53
2022-11-28T14:50:18.208Z,101334.50
2022-11-28T14:54:35.507Z,101335.44
2022-11-28T14:58:39.866Z,101331.25
2022-11-28T15:03:09.339Z,101321.75
2022-11-28T15:07:29.491Z,101331.31
2022-11-28T15:12:00.535Z,101324.41
2022-11-28T15:16:11.470Z,101326.97
2022-11-28T15:20:21.736Z,101326.25
2022-11-28T15:24:25.215Z,101328.91
2022-11-28T15:28:29.164Z,101331.53
2022-11-28T15:32:31.840Z,101323.69
2022-11-28T15:36:39.224Z,101327.16
2022-11-28T15:40:50.651Z,101335.81
2022-11-28T15:45:06.099Z,101330.56
2022-11-28T15:49:34.379Z,101335.00
2022-11-28T15:53:42.314Z,101330.66
2022-11-28T15:57:44.286Z,101338.44
2022-11-28T16:01:46.903Z,101330.69
2022-11-28T16:05:51.705Z,101330.66
2022-11-28T16:09:58.450Z,101331.50
2022-11-28T16:14:07.488Z,101328.13
2022-11-28T16:18:15.224Z,101329.81
2022-11-28T16:22:23.083Z,101327.25
2022-11-28T16:26:36.545Z,101328.22
2022-11-28T16:30:42.823Z,101324.81
2022-11-28T16:34:50.713Z,101332.53
2022-11-28T16:39:03.202Z,101325.63
2022-11-28T16:43:06.195Z,101329.00
2022-11-28T16:47:25.470Z,101332.53
2022-11-28T16:51:34.227Z,101328.19
2022-11-28T16:55:40.750Z,101334.25
2022-11-28T16:59:44.439Z,101344.78
2022-11-28T17:03:52.058Z,101338.75
2022-11-28T17:07:54.364Z,101347.50
2022-11-28T17:12:02.009Z,101341.41
2022-11-28T17:16:04.024Z,101349.16
2022-11-28T17:20:06.544Z,101346.66
2022-11-28T17:24:21.045Z,101352.63
2022-11-28T17:28:27.788Z,101354.28
2022-11-28T17:32:31.113Z,101357.03
2022-11-28T17:36:32.901Z,101360.53
2022-11-28T17:40:36.455Z,101360.53
2022-11-28T17:44:39.090Z,101355.38
2022-11-28T17:48:41.123Z,101364.00
2022-11-28T17:52:43.289Z,101360.56
2022-11-28T17:56:46.371Z,101367.44
2022-11-28T18:00:48.548Z,101370.94
2022-11-28T18:04:50.448Z,101377.81
2022-11-28T18:08:52.590Z,101382.16
2022-11-28T18:12:55.450Z,101379.75
2022-11-28T18:17:00.838Z,101378.88
2022-11-28T18:21:03.316Z,101379.00
2022-11-28T18:25:08.016Z,101378.13
2022-11-28T18:29:10.078Z,101379.91
2022-11-28T18:33:14.265Z,101379.13
2022-11-28T18:37:15.983Z,101381.75
2022-11-28T18:41:18.135Z,101389.66
2022-11-28T18:45:20.997Z,101385.25
2022-11-28T18:49:23.212Z,101387.88
2022-11-28T18:53:24.941Z,101385.31
2022-11-28T18:57:31.162Z,101386.09
2022-11-28T19:01:34.641Z,101385.34
2022-11-28T19:05:41.951Z,101383.63
2022-11-28T19:09:45.425Z,101387.78
2022-11-28T19:13:48.793Z,101387.88
2022-11-28T19:17:50.649Z,101400.00
2022-11-28T19:21:52.707Z,101409.34
2022-11-28T19:25:54.765Z,101409.41
2022-11-28T19:29:56.858Z,101406.00
2022-11-28T19:34:02.007Z,101399.09
2022-11-28T19:38:05.866Z,101412.91
2022-11-28T19:42:08.119Z,101413.78
2022-11-28T19:46:11.206Z,101412.97
2022-11-28T19:50:13.623Z,101412.94
2022-11-28T19:54:19.534Z,101418.22
2022-11-28T19:58:22.000Z,101414.81
2022-11-28T20:02:23.834Z,101411.34
2022-11-28T20:06:28.877Z,101403.50
2022-11-28T20:10:30.621Z,101407.84
2022-11-28T20:14:32.660Z,101419.00
2022-11-28T20:18:36.960Z,101418.25
2022-11-28T20:22:39.140Z,101428.63
2022-11-28T20:26:43.531Z,101431.22
2022-11-28T20:30:45.417Z,101438.09
2022-11-28T20:34:47.466Z,101445.91
2022-11-28T20:38:50.099Z,101449.28
2022-11-28T20:42:51.847Z,101446.75
2022-11-28T20:46:53.924Z,101459.69
2022-11-28T20:50:55.712Z,101451.94
2022-11-28T20:54:57.635Z,101451.94
2022-11-28T20:59:01.811Z,101458.78
2022-11-28T21:03:03.644Z,101454.50
2022-11-28T21:07:05.603Z,101454.47
2022-11-28T21:11:10.991Z,101449.28
2022-11-28T21:15:12.891Z,101433.00
2022-11-28T21:19:14.761Z,101448.50
2022-11-28T21:23:16.709Z,101446.75
2022-11-28T21:27:18.669Z,101457.06
2022-11-28T21:31:26.688Z,101455.41
2022-11-28T21:35:28.376Z,101458.84
2022-11-28T21:39:30.365Z,101451.94
2022-11-28T21:43:32.299Z,101449.38
2022-11-28T21:47:34.356Z,101455.38
2022-11-28T21:51:36.056Z,101450.19
2022-11-28T21:55:37.993Z,101448.47
2022-11-28T21:59:39.694Z,101433.84
2022-11-28T22:03:43.676Z,101437.28
2022-11-28T22:07:45.572Z,101430.44
2022-11-28T22:11:47.564Z,101426.09
2022-11-28T22:15:50.653Z,101419.22
2022-11-28T22:19:52.389Z,101419.31
2022-11-28T22:23:54.593Z,101410.69
2022-11-28T22:27:56.662Z,101418.47
2022-11-28T22:31:58.588Z,101405.50
2022-11-28T22:36:20.985Z,101414.09
2022-11-28T22:40:22.696Z,101407.22
2022-11-28T22:44:24.680Z,101402.09
2022-11-28T22:48:29.936Z,101396.03
2022-11-28T22:52:32.334Z,101392.56
2022-11-28T22:56:34.668Z,101400.38
2022-11-28T23:00:37.170Z,101400.34
2022-11-28T23:04:38.842Z,101393.47
2022-11-28T23:08:41.436Z,101399.47
2022-11-28T23:12:43.124Z,101402.88
2022-11-28T23:16:46.052Z,101395.16
2022-11-28T23:20:47.898Z,101403.75
2022-11-28T23:24:49.891Z,101403.75
2022-11-28T23:28:52.549Z,101409.75
2022-11-28T23:32:54.222Z,101401.97
2022-11-28T23:36:56.102Z,101399.41
2022-11-28T23:40:57.870Z,101406.31
2022-11-28T23:44:59.700Z,101389.97
2022-11-28T23:49:01.650Z,101395.97
2022-11-28T23:53:03.336Z,101396.88
2022-11-28T23:57:05.256Z,101389.13
